KAUS/AUS METAR and TAF weather

Enter ICAO airport designator
Station Type Date Time Source
KAUS METAR 2021/04/12 03:53 UTC NOAA

KAUS 120353Z 18010KT 10SM SCT250 21/13 A2972 RMK AO2 SLP058 T02110128 $


Station Type Date Time Source
KAUS Decoded METAR 2021/04/12 03:53 UTC NOAA

AUSTIN-BERGSTROM INTERNATIONAL AIRPORT, TX, United States (KAUS) 30-11N 097-41W 172M
Apr 11, 2021 - 11:53 PM EDT / 2021.04.12 0353 UTC
Wind: from the S (180 degrees) at 12 MPH (10 KT):0
Visibility: 10 mile(s):0
Sky conditions: partly cloudy
Temperature: 70.0 F (21.1 C)
Dew Point: 55.0 F (12.8 C)
Relative Humidity: 59%
Pressure (altimeter): 29.72 in. Hg (1006 hPa)
ob: KAUS 120353Z 18010KT 10SM SCT250 21/13 A2972 RMK AO2 SLP058 T02110128
cycle: 4

Station Type Date Time Source
KAUS TAF 2021/04/11 20:36 UTC NOAA

TAF
AMD KAUS 111933Z 1120/1224 21011KT P6SM FEW250
FM120700 18005KT P6SM BKN015
FM121100 18009KT P6SM OVC009
FM121500 16011KT P6SM OVC015
FM121800 14007KT P6SM BKN020

Example: see airport list